createdAt,value
2017-03-13T00:00:25.074Z,1012.1
2017-03-13T00:01:26.319Z,1012.16
2017-03-13T00:02:27.581Z,1012.11
2017-03-13T00:03:28.813Z,1012.17
2017-03-13T00:04:30.058Z,1012.16
2017-03-13T00:05:31.300Z,1012.22
2017-03-13T00:06:32.536Z,1012.25
2017-03-13T00:07:33.777Z,1012.22
2017-03-13T00:08:35.032Z,1012.28
2017-03-13T00:09:36.275Z,1012.3
2017-03-13T00:10:37.559Z,1012.34
2017-03-13T00:11:38.820Z,1012.35
2017-03-13T00:12:40.071Z,1012.36
2017-03-13T00:13:41.314Z,1012.4
2017-03-13T00:14:42.542Z,1012.4
2017-03-13T00:15:43.801Z,1012.45
2017-03-13T00:16:45.023Z,1012.42
2017-03-13T00:17:46.294Z,1012.39
2017-03-13T00:18:47.535Z,1012.38
2017-03-13T00:19:48.788Z,1012.45
2017-03-13T00:20:50.035Z,1012.42
2017-03-13T00:21:51.296Z,1012.42
2017-03-13T00:22:52.514Z,1012.42
2017-03-13T00:23:53.833Z,1012.44
2017-03-13T00:24:55.069Z,1012.49
2017-03-13T00:25:56.301Z,1012.46
2017-03-13T00:26:57.572Z,1012.55
2017-03-13T00:27:58.819Z,1012.48
2017-03-13T00:29:00.089Z,1012.58
2017-03-13T00:30:01.348Z,1012.55
2017-03-13T00:31:02.594Z,1012.53
2017-03-13T00:32:03.839Z,1012.53
2017-03-13T00:33:05.066Z,1012.53
2017-03-13T00:34:06.303Z,1012.56
2017-03-13T00:35:07.553Z,1012.51
2017-03-13T00:36:08.796Z,1012.51
2017-03-13T00:37:10.203Z,1012.54
2017-03-13T00:38:11.454Z,1012.51
2017-03-13T00:39:12.693Z,1012.55
2017-03-13T00:40:13.934Z,1012.55
2017-03-13T00:41:15.169Z,1012.54
2017-03-13T00:42:16.408Z,1012.51
2017-03-13T00:43:17.674Z,1012.54
2017-03-13T00:44:18.916Z,1012.53
2017-03-13T00:45:20.193Z,1012.51
2017-03-13T00:46:21.425Z,1012.55
2017-03-13T00:47:22.699Z,1012.56
2017-03-13T00:48:23.942Z,1012.54
2017-03-13T00:49:25.165Z,1012.57
2017-03-13T00:50:26.408Z,1012.57
2017-03-13T00:51:27.660Z,1012.57
2017-03-13T00:52:28.890Z,1012.6
2017-03-13T00:53:30.127Z,1012.57
2017-03-13T00:54:31.367Z,1012.6
2017-03-13T00:55:32.736Z,1012.63
2017-03-13T00:56:34.208Z,1012.62
2017-03-13T00:57:35.434Z,1012.6
2017-03-13T00:58:36.681Z,1012.6
2017-03-13T00:59:37.938Z,1012.62
2017-03-13T01:00:39.179Z,1012.62
2017-03-13T01:01:40.570Z,1012.6
2017-03-13T01:02:41.809Z,1012.64
2017-03-13T01:03:43.049Z,1012.61
2017-03-13T01:04:44.287Z,1012.56
2017-03-13T01:05:45.516Z,1012.62
2017-03-13T01:06:46.772Z,1012.61
2017-03-13T01:07:48.080Z,1012.62
2017-03-13T01:08:49.285Z,1012.66
2017-03-13T01:09:50.624Z,1012.64
2017-03-13T01:10:51.846Z,1012.73
2017-03-13T01:11:53.081Z,1012.75
2017-03-13T01:12:54.312Z,1012.72
2017-03-13T01:13:55.566Z,1012.76
2017-03-13T01:14:56.813Z,1012.78
2017-03-13T01:15:58.058Z,1012.76
2017-03-13T01:16:59.368Z,1012.78
2017-03-13T01:18:00.585Z,1012.76
2017-03-13T01:19:01.861Z,1012.77
2017-03-13T01:20:03.083Z,1012.75
2017-03-13T01:21:04.489Z,1012.78
2017-03-13T01:22:05.736Z,1012.74
2017-03-13T01:23:07.012Z,1012.77
2017-03-13T01:24:08.245Z,1012.75
2017-03-13T01:25:09.490Z,1012.78
2017-03-13T01:26:10.774Z,1012.81
2017-03-13T01:27:12.061Z,1012.76
2017-03-13T01:28:13.292Z,1012.82
2017-03-13T01:29:14.578Z,1012.81
2017-03-13T01:30:15.845Z,1012.84
2017-03-13T01:31:17.059Z,1012.82
2017-03-13T01:32:18.296Z,1012.83
2017-03-13T01:33:19.628Z,1012.85
2017-03-13T01:34:20.805Z,1012.82
2017-03-13T01:35:22.110Z,1012.85
2017-03-13T01:36:23.357Z,1012.85
2017-03-13T01:37:24.572Z,1012.89
2017-03-13T01:38:25.799Z,1012.88
2017-03-13T01:39:27.030Z,1012.89
2017-03-13T01:40:28.429Z,1012.89
2017-03-13T01:41:29.622Z,1012.88
2017-03-13T01:42:30.899Z,1012.89
2017-03-13T01:43:32.128Z,1012.89
2017-03-13T01:44:33.353Z,1012.92
2017-03-13T01:45:34.598Z,1012.93
2017-03-13T01:46:35.849Z,1012.87
2017-03-13T01:47:37.138Z,1012.89
2017-03-13T01:48:38.493Z,1012.9
2017-03-13T01:49:39.824Z,1012.87
2017-03-13T01:50:41.051Z,1012.87
2017-03-13T01:51:42.269Z,1012.87
2017-03-13T01:52:43.505Z,1012.94
2017-03-13T01:53:44.747Z,1012.93
2017-03-13T01:54:45.986Z,1012.99
2017-03-13T01:55:47.206Z,1012.94
2017-03-13T01:56:48.468Z,1012.97
2017-03-13T01:57:49.924Z,1012.96
2017-03-13T01:58:51.234Z,1012.98
2017-03-13T01:59:52.616Z,1013
2017-03-13T02:00:53.863Z,1012.99
2017-03-13T02:01:55.100Z,1012.99
2017-03-13T02:02:56.359Z,1012.96
2017-03-13T02:03:57.593Z,1013
2017-03-13T02:04:58.839Z,1012.92
2017-03-13T02:06:00.221Z,1012.94
2017-03-13T02:07:01.450Z,1012.93
2017-03-13T02:08:02.697Z,1012.92
2017-03-13T02:09:03.914Z,1012.92
2017-03-13T02:10:05.149Z,1012.95
2017-03-13T02:11:06.395Z,1012.91
2017-03-13T02:12:07.764Z,1012.96
2017-03-13T02:13:09.040Z,1012.94
2017-03-13T02:14:10.281Z,1012.94
2017-03-13T02:15:11.545Z,1012.89
2017-03-13T02:16:12.759Z,1012.93
2017-03-13T02:17:14.060Z,1012.93
2017-03-13T02:18:15.261Z,1013
2017-03-13T02:19:16.508Z,1013.01
2017-03-13T02:20:17.884Z,1013.01
2017-03-13T02:21:19.101Z,1013.01
2017-03-13T02:22:20.316Z,1012.99
2017-03-13T02:23:21.554Z,1013.04
2017-03-13T02:24:22.801Z,1013.02
2017-03-13T02:25:24.084Z,1013.02
2017-03-13T02:26:25.323Z,1013.06
2017-03-13T02:27:26.568Z,1013.11
2017-03-13T02:28:27.832Z,1013.09
2017-03-13T02:29:29.043Z,1013.1
2017-03-13T02:30:30.305Z,1013.09
2017-03-13T02:31:31.547Z,1013.1
2017-03-13T02:32:32.788Z,1013.11
2017-03-13T02:33:34.103Z,1013.07
2017-03-13T02:34:35.339Z,1013.11
2017-03-13T02:35:36.575Z,1013.21
2017-03-13T02:36:37.804Z,1013.2
2017-03-13T02:37:39.028Z,1013.22
2017-03-13T02:38:40.464Z,1013.23
2017-03-13T02:39:41.711Z,1013.23
2017-03-13T02:40:42.952Z,1013.25
2017-03-13T02:41:44.194Z,1013.23
2017-03-13T02:42:45.450Z,1013.29
2017-03-13T02:43:46.667Z,1013.31
2017-03-13T02:44:47.907Z,1013.31
2017-03-13T02:45:49.147Z,1013.35
2017-03-13T02:46:50.388Z,1013.32
2017-03-13T02:47:51.638Z,1013.35
2017-03-13T02:48:52.861Z,1013.32
2017-03-13T02:49:54.093Z,1013.31
2017-03-13T02:50:55.330Z,1013.31
2017-03-13T02:51:56.672Z,1013.29
2017-03-13T02:52:57.926Z,1013.28
2017-03-13T02:53:59.163Z,1013.3
2017-03-13T02:55:00.395Z,1013.23
2017-03-13T02:56:01.635Z,1013.26
2017-03-13T02:57:02.877Z,1013.26
2017-03-13T02:58:04.263Z,1013.31
2017-03-13T02:59:05.478Z,1013.31
2017-03-13T03:00:06.773Z,1013.33
2017-03-13T03:01:07.992Z,1013.34
2017-03-13T03:02:09.241Z,1013.38
2017-03-13T03:03:10.474Z,1013.38
2017-03-13T03:04:11.705Z,1013.38
2017-03-13T03:05:12.931Z,1013.39
2017-03-13T03:06:14.187Z,1013.33
2017-03-13T03:07:15.436Z,1013.35
2017-03-13T03:08:16.675Z,1013.34
2017-03-13T03:09:18.029Z,1013.33
2017-03-13T03:10:19.195Z,1013.34
2017-03-13T03:11:20.507Z,1013.38
2017-03-13T03:12:21.751Z,1013.37
2017-03-13T03:13:23.003Z,1013.38
2017-03-13T03:14:24.242Z,1013.39
2017-03-13T03:15:25.502Z,1013.46
2017-03-13T03:16:26.748Z,1013.46
2017-03-13T03:17:28.002Z,1013.5
2017-03-13T03:18:29.238Z,1013.48
2017-03-13T03:19:30.487Z,1013.51
2017-03-13T03:20:31.723Z,1013.56
2017-03-13T03:21:33.000Z,1013.54
2017-03-13T03:22:34.244Z,1013.6
2017-03-13T03:23:35.485Z,1013.58
2017-03-13T03:24:36.758Z,1013.61
2017-03-13T03:25:37.991Z,1013.62
2017-03-13T03:26:39.359Z,1013.63
2017-03-13T03:27:40.679Z,1013.6
2017-03-13T03:28:41.972Z,1013.66
2017-03-13T03:29:43.209Z,1013.61
2017-03-13T03:30:44.440Z,1013.63
2017-03-13T03:31:45.667Z,1013.63
2017-03-13T03:32:46.910Z,1013.68
2017-03-13T03:33:48.178Z,1013.63
2017-03-13T03:34:49.394Z,1013.67
2017-03-13T03:35:50.693Z,1013.65
2017-03-13T03:36:52.026Z,1013.69
2017-03-13T03:37:53.270Z,1013.69
2017-03-13T03:38:54.501Z,1013.72
2017-03-13T03:39:55.739Z,1013.7
2017-03-13T03:40:56.980Z,1013.7
2017-03-13T03:41:58.255Z,1013.72
2017-03-13T03:42:59.507Z,1013.71
2017-03-13T03:44:00.739Z,1013.71
2017-03-13T03:45:01.971Z,1013.71
2017-03-13T03:46:03.213Z,1013.75
2017-03-13T03:47:04.439Z,1013.73
2017-03-13T03:48:05.667Z,1013.75
2017-03-13T03:49:06.914Z,1013.74
2017-03-13T03:50:08.162Z,1013.74
2017-03-13T03:51:09.399Z,1013.74
2017-03-13T03:52:10.640Z,1013.75
2017-03-13T03:53:11.881Z,1013.75
2017-03-13T03:54:13.137Z,1013.82
2017-03-13T03:55:14.495Z,1013.82
2017-03-13T03:56:15.791Z,1013.85
2017-03-13T03:57:17.028Z,1013.87
2017-03-13T03:58:18.252Z,1013.84
2017-03-13T03:59:19.479Z,1013.85
2017-03-13T04:00:20.852Z,1013.85
2017-03-13T04:01:22.129Z,1013.89
2017-03-13T04:02:23.443Z,1013.87
2017-03-13T04:03:24.631Z,1013.89
2017-03-13T04:04:25.923Z,1013.85
2017-03-13T04:05:27.157Z,1013.88
2017-03-13T04:06:28.386Z,1013.86
2017-03-13T04:07:29.623Z,1013.86
2017-03-13T04:08:30.861Z,1013.93
2017-03-13T04:09:32.105Z,1013.89
2017-03-13T04:10:33.332Z,1013.9
2017-03-13T04:11:34.565Z,1013.89
2017-03-13T04:12:35.810Z,1013.93
2017-03-13T04:13:37.044Z,1013.96
2017-03-13T04:14:38.301Z,1013.93
2017-03-13T04:15:39.532Z,1013.97
2017-03-13T04:16:40.760Z,1013.96
2017-03-13T04:17:42.049Z,1013.96
2017-03-13T04:18:43.311Z,1013.98
2017-03-13T04:19:44.593Z,1013.97
2017-03-13T04:20:45.875Z,1013.94
2017-03-13T04:21:47.114Z,1013.92
2017-03-13T04:22:48.355Z,1013.89
2017-03-13T04:23:49.594Z,1013.88
2017-03-13T04:24:50.844Z,1013.89
2017-03-13T04:25:52.104Z,1013.87
2017-03-13T04:26:53.323Z,1013.9
2017-03-13T04:27:54.587Z,1013.86
2017-03-13T04:28:55.817Z,1013.85
2017-03-13T04:29:57.073Z,1013.84
2017-03-13T04:30:58.271Z,1013.83
2017-03-13T04:31:59.540Z,1013.83
2017-03-13T04:33:00.776Z,1013.8
2017-03-13T04:34:02.055Z,1013.84
2017-03-13T04:35:03.298Z,1013.86
2017-03-13T04:36:04.652Z,1013.81
2017-03-13T04:37:05.903Z,1013.75
2017-03-13T04:38:07.132Z,1013.8
2017-03-13T04:39:08.362Z,1013.78
2017-03-13T04:40:09.590Z,1013.76
2017-03-13T04:41:10.884Z,1013.77
2017-03-13T04:42:12.142Z,1013.8
2017-03-13T04:43:13.367Z,1013.77
2017-03-13T04:44:14.623Z,1013.8
2017-03-13T04:45:15.858Z,1013.76
2017-03-13T04:46:17.176Z,1013.82
2017-03-13T04:47:18.467Z,1013.85
2017-03-13T04:48:19.725Z,1013.86
2017-03-13T04:49:20.942Z,1013.85
2017-03-13T04:50:22.173Z,1013.89
2017-03-13T04:51:23.398Z,1013.9
2017-03-13T04:52:24.771Z,1013.86
2017-03-13T04:53:26.019Z,1013.93
2017-03-13T04:54:27.248Z,1013.9
2017-03-13T04:55:28.511Z,1013.93
2017-03-13T04:56:29.726Z,1013.95
2017-03-13T04:57:30.968Z,1013.95
2017-03-13T04:58:32.207Z,1013.99
2017-03-13T04:59:33.434Z,1014.04
2017-03-13T05:00:34.823Z,1014.02
2017-03-13T05:01:36.083Z,1014.08
2017-03-13T05:02:37.310Z,1014.09
2017-03-13T05:03:38.536Z,1014.08
2017-03-13T05:04:39.769Z,1014.05
2017-03-13T05:05:41.025Z,1014.05
2017-03-13T05:06:42.281Z,1013.99
2017-03-13T05:07:43.576Z,1013.98
2017-03-13T05:08:44.852Z,1014.02
2017-03-13T05:09:46.059Z,1013.97
2017-03-13T05:10:47.309Z,1013.99
2017-03-13T05:11:48.556Z,1013.96
2017-03-13T05:12:49.861Z,1013.94
2017-03-13T05:13:51.014Z,1013.97
2017-03-13T05:14:52.269Z,1013.93
2017-03-13T05:15:53.498Z,1013.9
2017-03-13T05:16:54.745Z,1013.92
2017-03-13T05:17:55.990Z,1013.86
2017-03-13T05:18:57.229Z,1013.85
2017-03-13T05:19:58.470Z,1013.94
2017-03-13T05:20:59.715Z,1013.96
2017-03-13T05:22:00.944Z,1014.01
2017-03-13T05:23:02.173Z,1014.09
2017-03-13T05:24:03.435Z,1014.1
2017-03-13T05:25:04.671Z,1014.1
2017-03-13T05:26:05.923Z,1014.15
2017-03-13T05:27:07.175Z,1014.13
2017-03-13T05:28:08.478Z,1014.16
2017-03-13T05:29:09.719Z,1014.1
2017-03-13T05:30:10.959Z,1014.14
2017-03-13T05:31:12.203Z,1014.13
2017-03-13T05:32:13.460Z,1014.14
2017-03-13T05:33:14.707Z,1014.13
2017-03-13T05:34:15.977Z,1014.18
2017-03-13T05:35:17.217Z,1014.19
2017-03-13T05:36:18.422Z,1014.23
2017-03-13T05:37:19.648Z,1014.25
2017-03-13T05:38:20.889Z,1014.26
2017-03-13T05:39:22.158Z,1014.26
2017-03-13T05:40:23.375Z,1014.21
2017-03-13T05:41:24.756Z,1014.22
2017-03-13T05:42:25.990Z,1014.25
2017-03-13T05:43:27.224Z,1014.26
2017-03-13T05:44:28.467Z,1014.26
2017-03-13T05:45:29.696Z,1014.21
2017-03-13T05:46:30.935Z,1014.21
2017-03-13T05:47:32.166Z,1014.2
2017-03-13T05:48:33.393Z,1014.18
2017-03-13T05:49:34.636Z,1014.19
2017-03-13T05:50:35.861Z,1014.16
2017-03-13T05:51:37.116Z,1014.18
2017-03-13T05:52:38.360Z,1014.2
2017-03-13T05:53:39.723Z,1014.22
2017-03-13T05:54:40.950Z,1014.23
2017-03-13T05:55:42.185Z,1014.25
2017-03-13T05:56:43.483Z,1014.27
2017-03-13T05:57:44.687Z,1014.26
2017-03-13T05:58:46.029Z,1014.2
2017-03-13T05:59:47.309Z,1014.27
2017-03-13T06:00:48.584Z,1014.27
2017-03-13T06:01:49.832Z,1014.28
2017-03-13T06:02:51.078Z,1014.3
2017-03-13T06:03:52.316Z,1014.27
2017-03-13T06:04:53.546Z,1014.33
2017-03-13T06:05:54.911Z,1014.36
2017-03-13T06:06:56.185Z,1014.37
2017-03-13T06:07:57.408Z,1014.41
2017-03-13T06:08:58.645Z,1014.45
2017-03-13T06:09:59.873Z,1014.45
2017-03-13T06:11:01.174Z,1014.46
2017-03-13T06:12:02.524Z,1014.47
2017-03-13T06:13:03.769Z,1014.52
2017-03-13T06:14:04.989Z,1014.49
2017-03-13T06:15:06.238Z,1014.47
2017-03-13T06:16:07.464Z,1014.47
2017-03-13T06:17:08.680Z,1014.51
2017-03-13T06:18:09.915Z,1014.53
2017-03-13T06:19:11.262Z,1014.54
2017-03-13T06:20:12.597Z,1014.57
2017-03-13T06:21:13.836Z,1014.61
2017-03-13T06:22:15.076Z,1014.61
2017-03-13T06:23:16.339Z,1014.6
2017-03-13T06:24:17.574Z,1014.57
2017-03-13T06:25:18.927Z,1014.59
2017-03-13T06:26:20.141Z,1014.62
2017-03-13T06:27:21.372Z,1014.63
2017-03-13T06:28:22.628Z,1014.62
2017-03-13T06:29:23.846Z,1014.63
2017-03-13T06:30:25.087Z,1014.66
2017-03-13T06:31:26.465Z,1014.63
2017-03-13T06:32:27.708Z,1014.66
2017-03-13T06:33:29.266Z,1014.65
2017-03-13T06:34:30.486Z,1014.66
2017-03-13T06:35:31.758Z,1014.65
2017-03-13T06:36:32.998Z,1014.59
2017-03-13T06:37:34.347Z,1014.61
2017-03-13T06:38:35.585Z,1014.55
2017-03-13T06:39:36.847Z,1014.55
2017-03-13T06:40:38.066Z,1014.57
2017-03-13T06:41:39.356Z,1014.53
2017-03-13T06:42:40.676Z,1014.58
2017-03-13T06:43:41.998Z,1014.57
2017-03-13T06:44:43.235Z,1014.62
2017-03-13T06:45:44.477Z,1014.66
2017-03-13T06:46:45.717Z,1014.7
2017-03-13T06:47:46.999Z,1014.71
2017-03-13T06:48:48.253Z,1014.75
2017-03-13T06:49:49.504Z,1014.7
2017-03-13T06:50:50.747Z,1014.7
2017-03-13T06:51:51.975Z,1014.7
2017-03-13T06:52:53.206Z,1014.67
2017-03-13T06:53:54.445Z,1014.73
2017-03-13T06:54:55.686Z,1014.74
2017-03-13T06:55:56.985Z,1014.76
2017-03-13T06:56:58.293Z,1014.75
2017-03-13T06:57:59.533Z,1014.75
2017-03-13T06:59:00.791Z,1014.86
2017-03-13T07:00:02.023Z,1014.82
2017-03-13T07:01:03.276Z,1014.82
2017-03-13T07:02:04.550Z,1014.85
2017-03-13T07:03:05.791Z,1014.84
2017-03-13T07:04:07.029Z,1014.85
2017-03-13T07:05:08.271Z,1014.89
2017-03-13T07:06:09.519Z,1014.87
2017-03-13T07:07:10.765Z,1014.89
2017-03-13T07:08:12.030Z,1014.89
2017-03-13T07:09:13.271Z,1014.93
2017-03-13T07:10:14.533Z,1014.96
2017-03-13T07:11:15.766Z,1014.98
2017-03-13T07:12:17.009Z,1014.98
2017-03-13T07:13:18.226Z,1015
2017-03-13T07:14:19.525Z,1015.01
2017-03-13T07:15:20.736Z,1014.99
2017-03-13T07:16:22.012Z,1014.99
2017-03-13T07:17:23.259Z,1014.99
2017-03-13T07:18:24.497Z,1014.95
2017-03-13T07:19:25.735Z,1014.97
2017-03-13T07:20:27.000Z,1014.93
2017-03-13T07:21:28.235Z,1014.94
2017-03-13T07:22:29.467Z,1014.93
2017-03-13T07:23:30.694Z,1014.92
2017-03-13T07:24:31.924Z,1014.88
2017-03-13T07:25:33.197Z,1014.95
2017-03-13T07:26:34.432Z,1014.94
2017-03-13T07:27:35.699Z,1014.93
2017-03-13T07:28:37.047Z,1014.93
2017-03-13T07:29:38.296Z,1014.91
2017-03-13T07:30:39.592Z,1014.95
2017-03-13T07:31:40.847Z,1014.93
2017-03-13T07:32:42.088Z,1014.99
2017-03-13T07:33:43.322Z,1014.95
2017-03-13T07:34:44.587Z,1015
2017-03-13T07:35:45.863Z,1014.97
2017-03-13T07:36:47.100Z,1014.99
2017-03-13T07:37:48.342Z,1014.99
2017-03-13T07:38:49.594Z,1015.02
2017-03-13T07:39:50.869Z,1015.03
2017-03-13T07:40:52.126Z,1015.04
2017-03-13T07:41:53.359Z,1015.07
2017-03-13T07:42:54.615Z,1015.09
2017-03-13T07:43:55.847Z,1015.09
2017-03-13T07:44:57.097Z,1015.13
2017-03-13T07:45:58.346Z,1015.18
2017-03-13T07:46:59.588Z,1015.18
2017-03-13T07:48:00.854Z,1015.26
2017-03-13T07:49:02.203Z,1015.29
2017-03-13T07:50:03.440Z,1015.37
2017-03-13T07:51:04.703Z,1015.44
2017-03-13T07:52:05.920Z,1015.43
2017-03-13T07:53:07.291Z,1015.45
2017-03-13T07:54:08.533Z,1015.46
2017-03-13T07:55:09.779Z,1015.53
2017-03-13T07:56:11.019Z,1015.52
2017-03-13T07:57:12.285Z,1015.6
2017-03-13T07:58:13.536Z,1015.63
2017-03-13T07:59:14.786Z,1015.65
2017-03-13T08:00:16.037Z,1015.7
2017-03-13T08:01:17.313Z,1015.72
2017-03-13T08:02:18.581Z,1015.74
2017-03-13T08:03:19.809Z,1015.8
2017-03-13T08:04:21.101Z,1015.83
2017-03-13T08:05:22.476Z,1015.86
2017-03-13T08:06:23.781Z,1015.85
2017-03-13T08:07:25.000Z,1015.86
2017-03-13T08:08:26.256Z,1015.94
2017-03-13T08:09:27.497Z,1015.93
2017-03-13T08:10:28.793Z,1015.97
2017-03-13T08:11:30.017Z,1015.99
2017-03-13T08:12:31.264Z,1016.01
2017-03-13T08:13:32.600Z,1016.03
2017-03-13T08:14:33.867Z,1016
2017-03-13T08:15:35.097Z,1016.08
2017-03-13T08:16:36.353Z,1016.11
2017-03-13T08:17:37.593Z,1016.13
2017-03-13T08:18:38.841Z,1016.21
2017-03-13T08:19:40.231Z,1016.22
2017-03-13T08:20:41.495Z,1016.2
2017-03-13T08:21:42.725Z,1016.19
2017-03-13T08:22:43.967Z,1016.19
2017-03-13T08:23:45.305Z,1016.2
2017-03-13T08:24:46.542Z,1016.16
2017-03-13T08:25:47.844Z,1016.2
2017-03-13T08:26:49.087Z,1016.21
2017-03-13T08:27:50.332Z,1016.26
2017-03-13T08:28:51.577Z,1016.3
2017-03-13T08:29:52.820Z,1016.33
2017-03-13T08:30:54.173Z,1016.36
2017-03-13T08:31:55.450Z,1016.37
2017-03-13T08:32:56.703Z,1016.37
2017-03-13T08:33:57.947Z,1016.41
2017-03-13T08:34:59.235Z,1016.47
2017-03-13T08:36:00.513Z,1016.55
2017-03-13T08:37:01.765Z,1016.57
2017-03-13T08:38:03.048Z,1016.61
2017-03-13T08:39:04.314Z,1016.59
2017-03-13T08:40:05.532Z,1016.6
2017-03-13T08:41:06.773Z,1016.61
2017-03-13T08:42:08.022Z,1016.62
2017-03-13T08:43:09.296Z,1016.62
2017-03-13T08:44:10.590Z,1016.58
2017-03-13T08:45:11.957Z,1016.56
2017-03-13T08:46:13.192Z,1016.54
2017-03-13T08:47:14.447Z,1016.57
2017-03-13T08:48:15.685Z,1016.68
2017-03-13T08:49:16.930Z,1016.71
2017-03-13T08:50:18.176Z,1016.84
2017-03-13T08:51:19.437Z,1016.93
2017-03-13T08:52:20.670Z,1016.96
2017-03-13T08:53:21.909Z,1016.93
2017-03-13T08:54:23.219Z,1016.95
2017-03-13T08:55:24.563Z,1016.91
2017-03-13T08:56:25.838Z,1016.91
2017-03-13T08:57:27.076Z,1016.83
2017-03-13T08:58:28.315Z,1016.71
2017-03-13T08:59:29.559Z,1016.61
2017-03-13T09:00:30.814Z,1016.54
2017-03-13T09:01:32.086Z,1016.46
2017-03-13T09:02:33.327Z,1016.41
2017-03-13T09:03:34.645Z,1016.47
2017-03-13T09:04:35.876Z,1016.44
2017-03-13T09:05:37.160Z,1016.46
2017-03-13T09:06:38.386Z,1016.49
2017-03-13T09:07:39.628Z,1016.45
2017-03-13T09:08:40.875Z,1016.42
2017-03-13T09:09:42.278Z,1016.46
2017-03-13T09:10:43.527Z,1016.51
2017-03-13T09:11:44.778Z,1016.53
2017-03-13T09:12:46.052Z,1016.61
2017-03-13T09:13:47.354Z,1016.68
2017-03-13T09:14:48.591Z,1016.78
2017-03-13T09:15:49.833Z,1016.79
2017-03-13T09:16:51.089Z,1016.78
2017-03-13T09:17:52.320Z,1016.76
2017-03-13T09:18:53.581Z,1016.71
2017-03-13T09:19:54.879Z,1016.71
2017-03-13T09:20:56.117Z,1016.76
2017-03-13T09:21:57.383Z,1016.74
2017-03-13T09:22:58.617Z,1016.74
2017-03-13T09:23:59.866Z,1016.76
2017-03-13T09:25:01.115Z,1016.72
2017-03-13T09:26:02.381Z,1016.75
2017-03-13T09:27:03.640Z,1016.8
2017-03-13T09:28:04.988Z,1016.85
2017-03-13T09:29:06.362Z,1016.9
2017-03-13T09:30:07.648Z,1016.9
2017-03-13T09:31:08.894Z,1016.95
2017-03-13T09:32:10.148Z,1016.93
2017-03-13T09:33:11.401Z,1016.95
2017-03-13T09:34:12.698Z,1016.99
2017-03-13T09:35:14.009Z,1017.02
2017-03-13T09:36:15.254Z,1016.91
2017-03-13T09:37:16.506Z,1016.86
2017-03-13T09:38:17.752Z,1016.9
2017-03-13T09:39:19.040Z,1016.9
2017-03-13T09:40:20.294Z,1016.93
2017-03-13T09:41:21.572Z,1017.07
2017-03-13T09:42:22.812Z,1017.13
2017-03-13T09:43:24.076Z,1017.24
2017-03-13T09:44:25.359Z,1017.27
2017-03-13T09:45:26.808Z,1017.3
2017-03-13T09:46:28.038Z,1017.33
2017-03-13T09:47:29.294Z,1017.3
2017-03-13T09:48:30.546Z,1017.27
2017-03-13T09:49:31.806Z,1017.3
2017-03-13T09:50:33.080Z,1017.24
2017-03-13T09:51:34.435Z,1017.08
2017-03-13T09:52:35.691Z,1017.1
2017-03-13T09:53:36.948Z,1017
2017-03-13T09:54:38.200Z,1016.99
2017-03-13T09:55:39.455Z,1016.94
2017-03-13T09:56:40.807Z,1017
2017-03-13T09:57:42.066Z,1017.03
2017-03-13T09:58:43.317Z,1017.04
2017-03-13T09:59:44.582Z,1017.08
2017-03-13T10:00:45.863Z,1017.07
2017-03-13T10:01:47.190Z,1017.08
2017-03-13T10:02:48.450Z,1017.1
2017-03-13T10:03:49.755Z,1017.07
2017-03-13T10:04:50.938Z,1017.03
2017-03-13T10:05:52.199Z,1017.1
2017-03-13T10:06:53.456Z,1017.06
2017-03-13T10:07:54.707Z,1017.05
2017-03-13T10:08:55.964Z,1017.07
2017-03-13T10:09:57.215Z,1017.02
2017-03-13T10:10:58.467Z,1016.95
2017-03-13T10:11:59.720Z,1016.9
2017-03-13T10:13:00.977Z,1016.95
2017-03-13T10:14:02.238Z,1016.97
2017-03-13T10:15:03.515Z,1016.98
2017-03-13T10:16:04.764Z,1016.98
2017-03-13T10:17:06.021Z,1016.99
2017-03-13T10:18:07.294Z,1016.99
2017-03-13T10:19:08.560Z,1017.04
2017-03-13T10:20:09.813Z,1017.09
2017-03-13T10:21:11.099Z,1017.03
2017-03-13T10:22:12.436Z,1017.08
2017-03-13T10:23:13.738Z,1017.14
2017-03-13T10:24:14.998Z,1017.21
2017-03-13T10:25:16.256Z,1017.11
2017-03-13T10:26:17.515Z,1017.15
2017-03-13T10:27:18.942Z,1017.24
2017-03-13T10:28:20.203Z,1017.22
2017-03-13T10:29:21.482Z,1017.01
2017-03-13T10:30:22.757Z,1017.12
2017-03-13T10:31:24.002Z,1017.11
2017-03-13T10:32:25.336Z,1017.01
2017-03-13T10:33:26.628Z,1016.97
2017-03-13T10:34:27.891Z,1016.86
2017-03-13T10:35:29.176Z,1016.91
2017-03-13T10:36:30.430Z,1016.92
2017-03-13T10:37:31.681Z,1016.95
2017-03-13T10:38:32.943Z,1017.04
2017-03-13T10:39:34.252Z,1016.95
2017-03-13T10:40:35.527Z,1016.99
2017-03-13T10:41:36.783Z,1016.92
2017-03-13T10:42:38.038Z,1016.99
2017-03-13T10:43:39.280Z,1017.01
2017-03-13T10:44:40.614Z,1017.01
2017-03-13T10:45:41.858Z,1016.99
2017-03-13T10:46:43.136Z,1017.03
2017-03-13T10:47:44.411Z,1017.02
2017-03-13T10:48:45.646Z,1017.07
2017-03-13T10:49:46.903Z,1017.04
2017-03-13T10:50:48.153Z,1017.06
2017-03-13T10:51:49.493Z,1017.09
2017-03-13T10:52:50.854Z,1017.08
2017-03-13T10:53:52.190Z,1017.07
2017-03-13T10:54:53.441Z,1017.07
2017-03-13T10:55:54.687Z,1017.04
2017-03-13T10:56:55.952Z,1017
2017-03-13T10:57:57.213Z,1017
2017-03-13T10:58:58.467Z,1016.99
2017-03-13T10:59:59.752Z,1017.04
2017-03-13T11:01:00.999Z,1017.03
2017-03-13T11:02:02.252Z,1017.04
2017-03-13T11:03:03.617Z,1017.09
2017-03-13T11:04:04.977Z,1017.11
2017-03-13T11:05:06.228Z,1017.15
2017-03-13T11:06:07.664Z,1017.16
2017-03-13T11:07:08.918Z,1017.15
2017-03-13T11:08:10.199Z,1017.16
2017-03-13T11:09:11.472Z,1017.18
2017-03-13T11:10:12.751Z,1017.18
2017-03-13T11:11:14.031Z,1017.19
2017-03-13T11:12:15.273Z,1017.26
2017-03-13T11:13:16.565Z,1017.24
2017-03-13T11:14:17.856Z,1017.24
2017-03-13T11:15:19.076Z,1017.26
2017-03-13T11:16:20.449Z,1017.23
2017-03-13T11:17:21.702Z,1017.24
2017-03-13T11:18:22.954Z,1017.25
2017-03-13T11:19:24.188Z,1017.23
2017-03-13T11:20:25.438Z,1017.25
2017-03-13T11:21:26.846Z,1017.25
2017-03-13T11:22:28.136Z,1017.29
2017-03-13T11:23:29.394Z,1017.3
2017-03-13T11:24:30.614Z,1017.33
2017-03-13T11:25:31.866Z,1017.28
2017-03-13T11:26:33.104Z,1017.41
2017-03-13T11:27:34.354Z,1017.38
2017-03-13T11:28:35.622Z,1017.37
2017-03-13T11:29:36.862Z,1017.34
2017-03-13T11:30:38.165Z,1017.37
2017-03-13T11:31:39.451Z,1017.41
2017-03-13T11:32:40.701Z,1017.4
2017-03-13T11:33:42.063Z,1017.41
2017-03-13T11:34:43.234Z,1017.41
2017-03-13T11:35:44.477Z,1017.4
2017-03-13T11:36:45.734Z,1017.38
2017-03-13T11:37:46.982Z,1017.41
2017-03-13T11:38:48.226Z,1017.4
2017-03-13T11:39:49.477Z,1017.35
2017-03-13T11:40:50.877Z,1017.35
2017-03-13T11:41:52.121Z,1017.32
2017-03-13T11:42:53.360Z,1017.33
2017-03-13T11:43:54.618Z,1017.31
2017-03-13T11:44:55.840Z,1017.27
2017-03-13T11:45:57.100Z,1017.28
2017-03-13T11:46:58.507Z,1017.22
2017-03-13T11:47:59.765Z,1017.24
2017-03-13T11:49:01.006Z,1017.24
2017-03-13T11:50:02.255Z,1017.25
2017-03-13T11:51:03.504Z,1017.22
2017-03-13T11:52:04.821Z,1017.26
2017-03-13T11:53:06.046Z,1017.23
2017-03-13T11:54:07.291Z,1017.24
2017-03-13T11:55:08.560Z,1017.22
2017-03-13T11:56:09.801Z,1017.28
2017-03-13T11:57:11.217Z,1017.21
2017-03-13T11:58:12.645Z,1017.23
2017-03-13T11:59:14.015Z,1017.22
2017-03-13T12:00:15.283Z,1017.18
2017-03-13T12:01:16.543Z,1017.14
2017-03-13T12:02:17.765Z,1017.18
2017-03-13T12:03:19.011Z,1017.23
2017-03-13T12:04:20.261Z,1017.25
2017-03-13T12:05:21.510Z,1017.22
2017-03-13T12:06:22.730Z,1017.26
2017-03-13T12:07:24.005Z,1017.31
2017-03-13T12:08:25.236Z,1017.35
2017-03-13T12:09:26.586Z,1017.33
2017-03-13T12:10:27.960Z,1017.28
2017-03-13T12:11:29.195Z,1017.23
2017-03-13T12:12:30.456Z,1017.24
2017-03-13T12:13:31.686Z,1017.22
2017-03-13T12:14:32.922Z,1017.18
2017-03-13T12:15:34.265Z,1017.17
2017-03-13T12:16:35.510Z,1017.16
2017-03-13T12:17:36.755Z,1017.16
2017-03-13T12:18:38.000Z,1017.12
2017-03-13T12:19:39.267Z,1017.14
2017-03-13T12:20:40.491Z,1017.06
2017-03-13T12:21:41.747Z,1017.1
2017-03-13T12:22:43.198Z,1017.11
2017-03-13T12:23:44.451Z,1017.09